Aeroporto :
LOGIN :

Iscrizione | Disclaimer

   EN    FR    IT 

 










Sommario :    VFR   VFR Marginale   IFR   IFR Intensivo   IFR Molto Intensivo
Visibilità : 
Base nubi : 
>= 8 km
>= 3000ft
5 / 8 km
1000 / 3000 ft
1500m / 5 km
500 / 1000 ft
800 / 1500m
200 / 500 ft
< 800m
< 200 ft
Simboli :   Temporali  Nebbia  Neve Forte  Precipitazioni Forti  Vento > 20 kt
SIGMETs :   Varie  Temporali  Ghiacco  Turbolenza  Onda orograficha  Ceneri Vulcaniche







- Altitudine del aeroporto : 308 ft
- Codice IATA : POZ


EPPO - Poznan-Lawica

ULTIMO METAR :
  • 221830Z 32012KT 9999 OVC004 14/13 Q1010 R10/290095

METARs OBSOLETI :
  • 221800Z 31012KT 9999 OVC005 14/14 Q1010 R10/290095
  • 221730Z 31013KT 9999 OVC005 14/14 Q1009 R10/290095
  • 221700Z 31013KT 8000 -RA BKN005 OVC044 14/14 Q1009 RERA R10/290095
  • 221630Z 32007KT 9999 -RA BKN007 15/14 Q1009 RESHRA R10/290095
  • 221600Z 31012KT 5000 SHRA BR BKN008CB 15/14 Q1009 R10/290095

TAF COR TAF EPPO
Valido dal 22 a 18 ore il 23 a 18 ore UTC


221734Z 2218/2318 31012KT 9999 BKN006 OVC040
TEMPO 2218/2221 31017G27KT 4000 SHRA BKN004 BKN010CB
TEMPO 2221/2306 31015G25KT 2500 DZ BR OVC003
TEMPO 2306/2315 31015G25KT
BECMG 2307/2309 BKN010
BECMG 2310/2312 BKN017
Nessun NOTAM noto per questo aeroporto.
1 SIGMET conosciuto per la FIR Warszawa (EPWW) :
 
Linea di groppi
EPWW SIGMET 1 VALID 221540/221940 EPWA
EPWW WARSAW FIR SQL TS OBS LINE N5030 E01750 - N5210 E01720 - N5200 E01720 TOP FL280 MOV SSW INTSF=



MetMap, La meteo Aeronautica in un colpo d'occhio ! - Copyright ORBIFLY Dicembre 2007 - Disclaimer

ORBIFLY MET'MAP TEAM :

Programmazione e sviluppo : Alexandra Zaïnal
Concezione e sviluppo : Baudouin d'Aumeries
Co-Programmazione e sviluppo : Marc-Olivier Méhu
Supporto tecnico e logistico : Manuel Goepfert
Aiuto per la traduzione : Arnaldo La Scala

Contatto : metmap@orbifly.com




FONTI E CREDITI :

   NOAA